createdAt,value
2022-10-22T00:02:10.237Z,100382.38
2022-10-22T00:04:36.851Z,100383.22
2022-10-22T00:07:03.473Z,100385.91
2022-10-22T00:09:47.889Z,100378.78
2022-10-22T00:12:18.457Z,100382.34
2022-10-22T00:14:48.657Z,100380.56
2022-10-22T00:17:21.299Z,100387.69
2022-10-22T00:19:50.436Z,100393.88
2022-10-22T00:22:17.180Z,100397.41
2022-10-22T00:24:50.911Z,100401.84
2022-10-22T00:27:20.693Z,100399.22
2022-10-22T00:29:49.689Z,100401.88
2022-10-22T00:32:16.437Z,100394.81
2022-10-22T00:34:43.148Z,100396.59
2022-10-22T00:37:10.933Z,100402.78
2022-10-22T00:39:38.162Z,100398.34
2022-10-22T00:42:10.702Z,100390.34
2022-10-22T00:45:11.450Z,100389.47
2022-10-22T00:47:54.395Z,100382.41
2022-10-22T00:50:25.709Z,100389.53
2022-10-22T00:52:52.505Z,100384.16
2022-10-22T00:55:20.183Z,100381.50
2022-10-22T00:57:49.878Z,100383.34
2022-10-22T01:00:16.935Z,100385.09
2022-10-22T01:02:44.063Z,100388.63
2022-10-22T01:05:13.455Z,100387.78
2022-10-22T01:07:46.165Z,100392.19
2022-10-22T01:10:22.406Z,100379.78
2022-10-22T01:13:19.737Z,100377.97
2022-10-22T01:16:08.106Z,100377.09
2022-10-22T01:18:48.726Z,100384.19
2022-10-22T01:21:17.256Z,100378.88
2022-10-22T01:23:58.996Z,100386.84
2022-10-22T01:26:40.746Z,100369.13
2022-10-22T01:29:12.089Z,100373.59
2022-10-22T01:31:44.526Z,100375.28
2022-10-22T01:34:13.472Z,100363.81
2022-10-22T01:36:49.046Z,100362.94
2022-10-22T01:39:16.454Z,100364.69
2022-10-22T01:41:49.248Z,100362.84
2022-10-22T01:44:33.676Z,100358.44
2022-10-22T01:47:29.568Z,100359.28
2022-10-22T01:50:09.219Z,100364.63
2022-10-22T01:53:00.197Z,100358.28
2022-10-22T01:55:41.900Z,100362.78
2022-10-22T01:58:38.863Z,100349.63
2022-10-22T02:01:14.523Z,100345.16
2022-10-22T02:03:46.621Z,100360.22
2022-10-22T02:06:20.809Z,100349.59
2022-10-22T02:08:48.973Z,100355.78
2022-10-22T02:11:15.935Z,100354.94
2022-10-22T02:13:50.214Z,100355.81
2022-10-22T02:16:21.748Z,100353.16
2022-10-22T02:18:54.521Z,100351.38
2022-10-22T02:21:27.906Z,100360.22
2022-10-22T02:23:54.695Z,100359.28
2022-10-22T02:27:09.030Z,100355.31
2022-10-22T02:30:11.299Z,100359.81
2022-10-22T02:32:59.407Z,100358.81
2022-10-22T02:35:27.778Z,100359.50
2022-10-22T02:37:55.553Z,100363.94
2022-10-22T02:40:25.799Z,100361.34
2022-10-22T02:42:54.542Z,100355.06
2022-10-22T02:45:28.735Z,100360.34
2022-10-22T02:47:56.992Z,100370.59
2022-10-22T02:50:23.640Z,100377.72
2022-10-22T02:52:50.206Z,100372.47
2022-10-22T02:55:19.564Z,100375.19
2022-10-22T02:57:46.141Z,100372.53
2022-10-22T03:00:13.142Z,100382.38
2022-10-22T03:02:45.715Z,100384.06
2022-10-22T03:05:12.453Z,100383.22
2022-10-22T03:07:39.346Z,100382.38
2022-10-22T03:10:06.548Z,100378.81
2022-10-22T03:12:33.148Z,100378.81
2022-10-22T03:15:04.645Z,100380.56
2022-10-22T03:17:33.768Z,100372.59
2022-10-22T03:20:08.052Z,100375.25
2022-10-22T03:23:03.933Z,100373.44
2022-10-22T03:26:06.910Z,100384.94
2022-10-22T03:28:35.455Z,100384.09
2022-10-22T03:31:05.363Z,100384.09
2022-10-22T03:34:01.627Z,100386.78
2022-10-22T03:36:38.838Z,100385.91
2022-10-22T03:39:12.530Z,100390.34
2022-10-22T03:45:08.151Z,100388.59
2022-10-22T03:47:36.628Z,100392.13
2022-10-22T03:50:04.541Z,100393.06
2022-10-22T03:52:36.779Z,100395.75
2022-10-22T03:55:07.165Z,100393.06
2022-10-22T03:57:33.793Z,100393.94
2022-10-22T04:00:00.576Z,100401.94
2022-10-22T04:02:27.165Z,100404.59
2022-10-22T04:04:53.742Z,100405.44
2022-10-22T04:07:20.320Z,100410.81
2022-10-22T04:09:46.922Z,100412.59
2022-10-22T04:12:13.517Z,100411.69
2022-10-22T04:14:40.333Z,100417.03
2022-10-22T04:17:07.064Z,100415.25
2022-10-22T04:19:33.675Z,100420.56
2022-10-22T04:22:00.704Z,100415.22
2022-10-22T04:24:27.739Z,100419.69
2022-10-22T04:26:55.239Z,100416.16
2022-10-22T04:29:21.921Z,100426.78
2022-10-22T04:31:48.542Z,100431.25
2022-10-22T04:34:15.262Z,100436.56
2022-10-22T04:36:41.869Z,100429.44
2022-10-22T04:39:08.488Z,100433.00
2022-10-22T04:41:37.445Z,100434.78
2022-10-22T04:44:04.826Z,100441.88
2022-10-22T04:46:33.523Z,100441.00
2022-10-22T04:49:00.235Z,100434.78
2022-10-22T04:51:27.636Z,100438.38
2022-10-22T04:53:54.594Z,100435.69
2022-10-22T04:56:24.872Z,100433.00
2022-10-22T04:58:54.642Z,100436.53
2022-10-22T05:01:24.188Z,100437.50
2022-10-22T05:03:52.973Z,100443.72
2022-10-22T05:06:22.915Z,100448.97
2022-10-22T05:08:53.832Z,100449.88
2022-10-22T05:11:22.923Z,100449.88
2022-10-22T05:13:49.939Z,100451.66
2022-10-22T05:16:16.595Z,100457.84
2022-10-22T05:18:45.098Z,100463.19
2022-10-22T05:21:14.522Z,100459.66
2022-10-22T05:23:41.676Z,100464.06
2022-10-22T05:26:10.152Z,100470.28
2022-10-22T05:28:37.219Z,100464.97
2022-10-22T05:31:05.034Z,100468.50
2022-10-22T05:33:32.520Z,100465.91
2022-10-22T05:35:59.860Z,100470.34
2022-10-22T05:38:26.472Z,100470.31
2022-10-22T05:41:07.124Z,100472.97
2022-10-22T05:43:33.999Z,100474.75
2022-10-22T05:46:12.292Z,100482.69
2022-10-22T05:48:39.782Z,100479.19
2022-10-22T05:51:12.304Z,100483.63
2022-10-22T05:53:41.173Z,100480.94
2022-10-22T05:56:16.195Z,100480.94
2022-10-22T05:58:45.910Z,100489.81
2022-10-22T06:01:21.164Z,100488.94
2022-10-22T06:03:48.320Z,100490.69
2022-10-22T06:06:22.970Z,100490.69
2022-10-22T06:08:51.198Z,100496.00
2022-10-22T06:11:18.631Z,100500.44
2022-10-22T06:13:45.985Z,100504.00
2022-10-22T06:16:12.960Z,100506.66
2022-10-22T06:18:39.573Z,100500.47
2022-10-22T06:21:14.162Z,100505.78
2022-10-22T06:23:41.367Z,100513.78
2022-10-22T06:26:08.236Z,100513.78
2022-10-22T06:28:35.589Z,100521.75
2022-10-22T06:31:02.999Z,100520.88
2022-10-22T06:33:31.807Z,100525.28
2022-10-22T06:36:09.221Z,100527.94
2022-10-22T06:38:35.808Z,100535.03
2022-10-22T06:41:10.565Z,100535.03
2022-10-22T06:43:37.183Z,100542.13
2022-10-22T06:46:09.959Z,100543.00
2022-10-22T06:48:40.249Z,100553.66
2022-10-22T06:51:11.994Z,100554.53
2022-10-22T06:53:39.660Z,100560.75
2022-10-22T06:56:09.732Z,100566.94
2022-10-22T06:58:36.491Z,100570.47
2022-10-22T07:01:11.839Z,100582.00
2022-10-22T07:03:39.686Z,100585.53
2022-10-22T07:06:09.914Z,100584.59
2022-10-22T07:08:37.554Z,100585.47
2022-10-22T07:11:22.046Z,100580.16
2022-10-22T07:13:48.650Z,100585.47
2022-10-22T07:16:17.020Z,100594.34
2022-10-22T07:18:44.210Z,100591.69
2022-10-22T07:21:12.067Z,100595.22
2022-10-22T07:23:38.715Z,100601.41
2022-10-22T07:26:08.770Z,100596.03
2022-10-22T07:28:37.992Z,100611.13
2022-10-22T07:31:06.987Z,100616.50
2022-10-22T07:33:33.619Z,100614.72
2022-10-22T07:36:01.835Z,100620.94
2022-10-22T07:38:29.014Z,100621.81
2022-10-22T07:40:55.942Z,100622.69
2022-10-22T07:43:22.606Z,100631.59
2022-10-22T07:45:49.278Z,100628.91
2022-10-22T07:48:16.574Z,100630.66
2022-10-22T07:53:10.804Z,100636.81
2022-10-22T07:55:37.959Z,100636.81
2022-10-22T07:58:04.589Z,100638.47
2022-10-22T08:00:31.282Z,100644.66
2022-10-22T08:02:57.879Z,100650.88
2022-10-22T08:05:24.494Z,100654.38
2022-10-22T08:07:51.085Z,100648.03
2022-10-22T08:10:18.000Z,100656.97
2022-10-22T08:12:44.936Z,100659.53
2022-10-22T08:15:11.694Z,100675.38
2022-10-22T08:17:38.665Z,100668.34
2022-10-22T08:20:06.112Z,100674.56
2022-10-22T08:22:32.789Z,100675.63
2022-10-22T08:25:00.508Z,100687.28
2022-10-22T08:27:27.178Z,100683.66
2022-10-22T08:29:53.812Z,100690.69
2022-10-22T08:32:20.570Z,100703.22
2022-10-22T08:34:47.145Z,100713.00
2022-10-22T08:37:14.426Z,100705.06
2022-10-22T08:39:41.438Z,100706.72
2022-10-22T08:42:35.895Z,100704.97
2022-10-22T08:45:34.866Z,100700.47
2022-10-22T08:48:18.865Z,100705.78
2022-10-22T08:50:50.527Z,100707.53
2022-10-22T08:53:23.541Z,100712.94
2022-10-22T08:55:53.567Z,100710.19
2022-10-22T08:58:45.508Z,100718.03
2022-10-22T09:01:38.083Z,100723.38
2022-10-22T09:04:31.371Z,100718.09
2022-10-22T09:06:59.321Z,100717.16
2022-10-22T09:09:36.087Z,100729.66
2022-10-22T09:12:07.379Z,100730.44
2022-10-22T09:14:34.114Z,100733.13
2022-10-22T09:17:12.744Z,100734.00
2022-10-22T09:19:51.582Z,100745.44
2022-10-22T09:22:43.609Z,100738.44
2022-10-22T09:25:20.858Z,100736.66
2022-10-22T09:27:48.542Z,100746.50
2022-10-22T09:30:17.895Z,100749.19
2022-10-22T09:32:44.617Z,100758.19
2022-10-22T09:35:14.213Z,100744.72
2022-10-22T09:37:50.856Z,100747.50
2022-10-22T09:40:17.948Z,100752.00
2022-10-22T09:42:46.306Z,100752.00
2022-10-22T09:45:22.305Z,100746.69
2022-10-22T09:48:01.510Z,100750.91
2022-10-22T09:50:42.850Z,100747.22
2022-10-22T09:53:14.009Z,100743.81
2022-10-22T09:55:42.142Z,100751.75
2022-10-22T09:58:12.197Z,100761.56
2022-10-22T10:00:40.837Z,100765.09
2022-10-22T10:03:19.521Z,100765.13
2022-10-22T10:05:54.289Z,100766.88
2022-10-22T10:08:27.809Z,100773.06
2022-10-22T10:11:00.302Z,100779.28
2022-10-22T10:13:36.141Z,100777.50
2022-10-22T10:16:28.857Z,100783.81
2022-10-22T10:19:08.652Z,100785.63
2022-10-22T10:21:58.120Z,100781.88
2022-10-22T10:24:36.852Z,100793.50
2022-10-22T10:27:20.712Z,100791.78
2022-10-22T10:30:01.587Z,100789.97
2022-10-22T10:32:31.083Z,100797.03
2022-10-22T10:35:07.176Z,100797.97
2022-10-22T10:37:48.736Z,100796.94
2022-10-22T10:40:40.489Z,100800.47
2022-10-22T10:43:11.529Z,100803.19
2022-10-22T10:46:00.231Z,100802.25
2022-10-22T10:48:29.986Z,100799.31
2022-10-22T10:51:37.396Z,100798.41
2022-10-22T10:54:29.119Z,100795.50
2022-10-22T10:57:09.390Z,100797.56
2022-10-22T11:03:25.242Z,100809.16
2022-10-22T11:06:01.556Z,100817.19
2022-10-22T11:08:35.132Z,100802.84
2022-10-22T11:11:27.561Z,100815.41
2022-10-22T11:14:02.215Z,100817.19
2022-10-22T11:16:39.240Z,100818.25
2022-10-22T11:19:46.130Z,100800.66
2022-10-22T11:22:38.123Z,100813.16
2022-10-22T11:25:12.851Z,100823.69
2022-10-22T11:27:43.091Z,100821.94
2022-10-22T11:30:14.145Z,100821.88
2022-10-22T11:32:43.128Z,100813.88
2022-10-22T11:35:15.746Z,100827.25
2022-10-22T11:37:44.624Z,100829.03
2022-10-22T11:40:19.425Z,100833.59
2022-10-22T11:42:54.056Z,100829.97
2022-10-22T11:45:31.194Z,100824.53
2022-10-22T11:48:17.459Z,100821.06
2022-10-22T11:50:56.618Z,100830.66
2022-10-22T11:53:26.316Z,100830.66
2022-10-22T11:55:55.597Z,100820.09
2022-10-22T11:58:28.423Z,100819.19
2022-10-22T12:01:18.137Z,100832.66
2022-10-22T12:03:48.218Z,100822.78
2022-10-22T12:06:19.693Z,100820.88
2022-10-22T12:08:48.870Z,100826.16
2022-10-22T12:11:34.032Z,100820.81
2022-10-22T12:14:29.886Z,100820.06
2022-10-22T12:16:57.859Z,100824.31
2022-10-22T12:19:44.973Z,100825.25
2022-10-22T12:22:27.715Z,100824.44
2022-10-22T12:24:57.760Z,100822.50
2022-10-22T12:27:34.891Z,100813.66
2022-10-22T12:30:02.784Z,100811.78
2022-10-22T12:32:35.601Z,100805.63
2022-10-22T12:35:16.064Z,100808.03
2022-10-22T12:37:43.327Z,100803.53
2022-10-22T12:40:21.572Z,100803.50
2022-10-22T12:42:51.150Z,100797.28
2022-10-22T12:45:20.607Z,100806.22
2022-10-22T12:47:52.716Z,100795.44
2022-10-22T12:50:23.356Z,100798.97
2022-10-22T12:52:50.013Z,100803.47
2022-10-22T12:55:18.630Z,100807.00
2022-10-22T12:57:48.039Z,100795.31
2022-10-22T13:00:30.187Z,100792.63
2022-10-22T13:03:09.261Z,100794.53
2022-10-22T13:05:39.260Z,100799.09
2022-10-22T13:08:13.435Z,100805.38
2022-10-22T13:10:41.871Z,100812.38
2022-10-22T13:17:17.888Z,100811.16
2022-10-22T13:20:25.964Z,100814.44
2022-10-22T13:23:03.503Z,100805.69
2022-10-22T13:25:35.907Z,100822.97
2022-10-22T13:28:18.482Z,100823.19
2022-10-22T13:31:02.307Z,100816.13
2022-10-22T13:33:46.335Z,100817.84
2022-10-22T13:36:15.262Z,100823.28
2022-10-22T13:38:42.524Z,100828.69
2022-10-22T13:41:23.127Z,100834.03
2022-10-22T13:43:50.516Z,100830.34
2022-10-22T13:46:17.474Z,100827.72
2022-10-22T13:48:45.411Z,100825.91
2022-10-22T13:51:20.120Z,100826.72
2022-10-22T13:53:47.613Z,100829.31
2022-10-22T13:56:15.842Z,100834.66
2022-10-22T13:58:43.731Z,100829.28
2022-10-22T14:01:30.754Z,100833.81
2022-10-22T14:03:59.358Z,100832.97
2022-10-22T14:06:31.341Z,100828.38
2022-10-22T14:09:03.122Z,100827.47
2022-10-22T14:11:32.761Z,100831.84
2022-10-22T14:14:08.964Z,100830.16
2022-10-22T14:16:37.401Z,100829.16
2022-10-22T14:19:07.215Z,100830.09
2022-10-22T14:21:37.026Z,100828.59
2022-10-22T14:24:06.125Z,100820.44
2022-10-22T14:26:38.223Z,100811.47
2022-10-22T14:29:09.404Z,100817.63
2022-10-22T14:31:42.046Z,100815.91
2022-10-22T14:34:13.837Z,100808.75
2022-10-22T14:36:43.513Z,100813.25
2022-10-22T14:39:10.213Z,100807.84
2022-10-22T14:41:37.196Z,100822.97
2022-10-22T14:44:03.892Z,100820.25
2022-10-22T14:46:30.477Z,100818.41
2022-10-22T14:48:57.120Z,100833.78
2022-10-22T14:51:23.707Z,100834.59
2022-10-22T14:53:50.494Z,100829.25
2022-10-22T14:56:18.825Z,100820.25
2022-10-22T14:58:45.734Z,100822.06
2022-10-22T15:01:12.554Z,100821.28
2022-10-22T15:03:39.226Z,100835.59
2022-10-22T15:06:06.127Z,100836.47
2022-10-22T15:08:32.856Z,100832.78
2022-10-22T15:11:01.861Z,100833.63
2022-10-22T15:13:29.260Z,100832.00
2022-10-22T15:15:57.201Z,100834.66
2022-10-22T15:18:24.840Z,100839.09
2022-10-22T15:21:02.928Z,100841.84
2022-10-22T15:23:30.153Z,100836.50
2022-10-22T15:25:57.046Z,100844.59
2022-10-22T15:28:24.647Z,100845.44
2022-10-22T15:31:00.116Z,100849.97
2022-10-22T15:33:28.521Z,100848.28
2022-10-22T15:35:56.119Z,100851.84
2022-10-22T15:38:27.556Z,100847.56
2022-10-22T15:41:09.967Z,100843.13
2022-10-22T15:43:36.981Z,100856.44
2022-10-22T15:46:15.918Z,100861.78
2022-10-22T15:48:42.728Z,100863.66
2022-10-22T15:51:14.646Z,100853.75
2022-10-22T15:53:41.389Z,100855.56
2022-10-22T15:56:09.300Z,100861.97
2022-10-22T15:58:35.872Z,100857.75
2022-10-22T16:01:06.424Z,100862.19
2022-10-22T16:03:33.413Z,100864.00
2022-10-22T16:06:00.021Z,100867.56
2022-10-22T16:08:27.088Z,100871.19
2022-10-22T16:10:53.808Z,100867.69
2022-10-22T16:13:21.885Z,100871.28
2022-10-22T16:15:48.573Z,100875.78
2022-10-22T16:18:15.174Z,100869.50
2022-10-22T16:20:42.576Z,100872.13
2022-10-22T16:23:09.289Z,100871.22
2022-10-22T16:25:40.449Z,100870.41
2022-10-22T16:28:08.206Z,100873.06
2022-10-22T16:30:36.134Z,100871.31
2022-10-22T16:33:03.559Z,100870.47
2022-10-22T16:35:31.187Z,100858.00
2022-10-22T16:37:58.288Z,100861.59
2022-10-22T16:40:25.157Z,100861.63
2022-10-22T16:42:51.989Z,100863.41
2022-10-22T16:45:18.528Z,100857.22
2022-10-22T16:47:46.923Z,100859.00
2022-10-22T16:50:13.530Z,100867.00
2022-10-22T16:52:40.085Z,100866.13
2022-10-22T16:55:07.116Z,100875.91
2022-10-22T16:57:33.977Z,100870.59
2022-10-22T17:00:00.588Z,100881.25
2022-10-22T17:02:27.135Z,100884.81
2022-10-22T17:04:53.782Z,100886.56
2022-10-22T17:07:20.416Z,100885.69
2022-10-22T17:09:46.970Z,100885.72
2022-10-22T17:12:13.784Z,100901.69
2022-10-22T17:14:40.400Z,100896.34
2022-10-22T17:17:07.033Z,100898.13
2022-10-22T17:19:34.292Z,100890.13
2022-10-22T17:22:00.950Z,100892.78
2022-10-22T17:24:27.509Z,100896.34
2022-10-22T17:26:54.176Z,100888.31
2022-10-22T17:29:21.951Z,100897.22
2022-10-22T17:31:50.182Z,100894.56
2022-10-22T17:34:19.944Z,100900.81
2022-10-22T17:36:46.742Z,100905.22
2022-10-22T17:39:16.538Z,100903.41
2022-10-22T17:41:43.125Z,100897.16
2022-10-22T17:44:12.246Z,100908.69
2022-10-22T17:46:39.572Z,100911.31
2022-10-22T17:49:18.525Z,100914.88
2022-10-22T17:51:45.981Z,100909.56
2022-10-22T17:54:13.637Z,100912.25
2022-10-22T17:56:40.884Z,100909.56
2022-10-22T17:59:08.811Z,100912.25
2022-10-22T18:01:37.825Z,100908.66
2022-10-22T18:04:07.824Z,100910.41
2022-10-22T18:06:34.979Z,100906.81
2022-10-22T18:09:08.767Z,100914.75
2022-10-22T18:11:37.292Z,100912.97
2022-10-22T18:14:04.021Z,100910.25
2022-10-22T18:16:30.728Z,100907.59
2022-10-22T18:18:57.803Z,100904.03
2022-10-22T18:21:26.161Z,100910.31
2022-10-22T18:24:02.392Z,100912.19
2022-10-22T18:26:32.168Z,100912.06
2022-10-22T18:28:59.642Z,100909.44
2022-10-22T18:31:45.521Z,100908.59
2022-10-22T18:34:12.318Z,100919.09
2022-10-22T18:36:40.558Z,100908.50
2022-10-22T18:39:08.093Z,100907.59
2022-10-22T18:41:35.952Z,100905.81
2022-10-22T18:44:04.886Z,100905.00
2022-10-22T18:46:35.914Z,100905.06
2022-10-22T18:49:02.714Z,100900.66
2022-10-22T18:54:36.694Z,100911.19
2022-10-22T18:57:14.911Z,100914.81
2022-10-22T18:59:58.543Z,100915.69
2022-10-22T19:02:38.274Z,100910.25
2022-10-22T19:05:30.635Z,100918.28
2022-10-22T19:08:03.191Z,100914.66
2022-10-22T19:10:29.855Z,100922.66
2022-10-22T19:12:56.524Z,100914.72
2022-10-22T19:15:23.961Z,100918.25
2022-10-22T19:17:50.603Z,100914.72
2022-10-22T19:20:17.123Z,100911.13
2022-10-22T19:22:43.817Z,100912.94
2022-10-22T19:25:12.005Z,100905.75
2022-10-22T19:27:39.770Z,100898.63
2022-10-22T19:30:07.271Z,100892.44
2022-10-22T19:32:33.995Z,100888.84
2022-10-22T19:35:00.681Z,100882.56
2022-10-22T19:37:27.262Z,100893.25
2022-10-22T19:39:53.895Z,100895.88
2022-10-22T19:42:20.894Z,100896.69
2022-10-22T19:44:47.467Z,100895.88
2022-10-22T19:47:16.416Z,100900.34
2022-10-22T19:49:43.043Z,100895.06
2022-10-22T19:52:09.778Z,100888.88
2022-10-22T19:54:40.760Z,100902.91
2022-10-22T19:57:10.332Z,100894.06
2022-10-22T19:59:37.371Z,100901.19
2022-10-22T20:02:03.977Z,100896.84
2022-10-22T20:04:30.700Z,100907.38
2022-10-22T20:06:57.373Z,100909.16
2022-10-22T20:09:24.513Z,100911.81
2022-10-22T20:11:57.980Z,100909.06
2022-10-22T20:14:26.902Z,100902.75
2022-10-22T20:16:53.776Z,100894.88
2022-10-22T20:19:20.541Z,100895.94
2022-10-22T20:21:48.931Z,100895.06
2022-10-22T20:24:15.617Z,100881.69
2022-10-22T20:26:45.387Z,100889.75
2022-10-22T20:29:13.659Z,100893.34
2022-10-22T20:31:40.328Z,100903.06
2022-10-22T20:34:06.908Z,100908.38
2022-10-22T20:36:33.648Z,100908.50
2022-10-22T20:39:05.689Z,100918.00
2022-10-22T20:41:34.111Z,100909.03
2022-10-22T20:44:01.175Z,100910.81
2022-10-22T20:46:32.272Z,100909.09
2022-10-22T20:49:01.770Z,100907.28
2022-10-22T20:51:28.732Z,100902.03
2022-10-22T20:53:55.297Z,100900.34
2022-10-22T20:56:22.198Z,100893.19
2022-10-22T20:58:49.416Z,100896.69
2022-10-22T21:01:22.145Z,100885.25
2022-10-22T21:03:50.538Z,100892.38
2022-10-22T21:06:17.651Z,100896.72
2022-10-22T21:08:44.317Z,100892.28
2022-10-22T21:11:10.963Z,100908.25
2022-10-22T21:13:37.759Z,100902.00
2022-10-22T21:16:11.771Z,100903.91
2022-10-22T21:18:38.401Z,100908.25
2022-10-22T21:21:06.207Z,100904.66
2022-10-22T21:23:34.149Z,100908.09
2022-10-22T21:26:01.583Z,100907.25
2022-10-22T21:31:00.349Z,100907.28
2022-10-22T21:33:27.040Z,100913.50
2022-10-22T21:35:54.766Z,100911.63
2022-10-22T21:38:22.565Z,100903.53
2022-10-22T21:40:49.392Z,100904.44
2022-10-22T21:43:19.941Z,100899.16
2022-10-22T21:45:46.704Z,100898.38
2022-10-22T21:48:15.359Z,100899.31
2022-10-22T21:50:43.271Z,100906.41
2022-10-22T21:53:10.987Z,100915.31
2022-10-22T21:55:39.020Z,100919.75
2022-10-22T21:58:06.292Z,100918.03
2022-10-22T22:00:33.504Z,100913.53
2022-10-22T22:03:00.247Z,100905.59
2022-10-22T22:05:28.361Z,100900.34
2022-10-22T22:07:55.081Z,100902.09
2022-10-22T22:10:22.058Z,100904.75
2022-10-22T22:12:51.222Z,100902.06
2022-10-22T22:15:19.114Z,100894.06
2022-10-22T22:18:11.912Z,100894.09
2022-10-22T22:20:38.543Z,100889.66
2022-10-22T22:23:05.233Z,100892.38
2022-10-22T22:25:32.224Z,100890.56
2022-10-22T22:27:59.029Z,100893.28
2022-10-22T22:30:25.824Z,100887.91
2022-10-22T22:32:52.511Z,100880.88
2022-10-22T22:35:19.275Z,100876.41
2022-10-22T22:37:45.969Z,100882.66
2022-10-22T22:40:12.681Z,100885.31
2022-10-22T22:42:39.262Z,100879.97
2022-10-22T22:45:06.180Z,100884.44
2022-10-22T22:47:32.881Z,100894.19
2022-10-22T22:49:59.468Z,100887.91
2022-10-22T22:52:26.004Z,100900.25
2022-10-22T22:54:52.729Z,100897.63
2022-10-22T22:57:19.250Z,100896.72
2022-10-22T22:59:45.927Z,100897.63
2022-10-22T23:02:12.538Z,100893.28
2022-10-22T23:04:39.119Z,100886.09
2022-10-22T23:07:05.695Z,100875.47
2022-10-22T23:09:32.348Z,100879.09
2022-10-22T23:11:58.968Z,100872.88
2022-10-22T23:14:26.029Z,100870.19
2022-10-22T23:16:52.854Z,100872.81
2022-10-22T23:19:21.437Z,100882.34
2022-10-22T23:21:50.853Z,100874.41
2022-10-22T23:24:20.238Z,100867.41
2022-10-22T23:26:48.554Z,100871.03
2022-10-22T23:29:24.206Z,100863.06
2022-10-22T23:31:51.666Z,100862.19
2022-10-22T23:34:21.280Z,100868.38
2022-10-22T23:36:48.261Z,100870.13
2022-10-22T23:39:18.170Z,100855.97
2022-10-22T23:41:45.256Z,100862.06
2022-10-22T23:44:11.997Z,100863.00
2022-10-22T23:46:39.095Z,100856.81
2022-10-22T23:49:06.751Z,100847.16
2022-10-22T23:51:33.484Z,100845.34
2022-10-22T23:54:03.609Z,100844.44
2022-10-22T23:56:30.866Z,100845.31
2022-10-22T23:58:58.403Z,100849.75
